sensor_id;sensor_type;location;lat;lon;timestamp;pressure;altitude;pressure_sealevel;temperature;humidity
61805;BME280;47725;47.912;7.356;2023-10-31T00:00:06;97928.94;;;15.28;61.59
61805;BME280;47725;47.912;7.356;2023-10-31T00:04:05;97929.32;;;15.26;61.46
61805;BME280;47725;47.912;7.356;2023-10-31T00:08:05;97929.55;;;15.24;61.70
61805;BME280;47725;47.912;7.356;2023-10-31T00:12:05;97930.14;;;15.23;61.48
61805;BME280;47725;47.912;7.356;2023-10-31T00:16:06;97930.24;;;15.21;61.57
61805;BME280;47725;47.912;7.356;2023-10-31T00:20:06;97931.21;;;15.19;61.66
61805;BME280;47725;47.912;7.356;2023-10-31T00:24:06;97931.05;;;15.23;60.84
61805;BME280;47725;47.912;7.356;2023-10-31T00:28:05;97929.53;;;15.26;60.59
61805;BME280;47725;47.912;7.356;2023-10-31T00:32:06;97927.75;;;15.29;60.46
61805;BME280;47725;47.912;7.356;2023-10-31T00:36:05;97925.46;;;15.29;60.81
61805;BME280;47725;47.912;7.356;2023-10-31T00:40:08;97924.94;;;15.26;61.43
61805;BME280;47725;47.912;7.356;2023-10-31T00:44:05;97924.66;;;15.19;61.80
61805;BME280;47725;47.912;7.356;2023-10-31T00:48:05;97926.42;;;15.14;61.74
61805;BME280;47725;47.912;7.356;2023-10-31T00:52:05;97928.88;;;15.09;61.85
61805;BME280;47725;47.912;7.356;2023-10-31T00:56:05;97931.28;;;15.05;61.79
61805;BME280;47725;47.912;7.356;2023-10-31T01:00:06;97933.07;;;15.01;61.88
61805;BME280;47725;47.912;7.356;2023-10-31T01:04:05;97934.69;;;14.99;61.74
61805;BME280;47725;47.912;7.356;2023-10-31T01:08:05;97935.05;;;14.97;61.90
61805;BME280;47725;47.912;7.356;2023-10-31T01:12:05;97935.36;;;14.94;62.02
61805;BME280;47725;47.912;7.356;2023-10-31T01:16:05;97938.30;;;14.92;62.04
61805;BME280;47725;47.912;7.356;2023-10-31T01:20:06;97939.48;;;14.89;62.32
61805;BME280;47725;47.912;7.356;2023-10-31T01:24:05;97942.94;;;14.84;62.43
61805;BME280;47725;47.912;7.356;2023-10-31T01:28:05;97947.12;;;14.81;62.25
61805;BME280;47725;47.912;7.356;2023-10-31T01:32:05;97949.13;;;14.80;62.18
61805;BME280;47725;47.912;7.356;2023-10-31T01:36:06;97951.49;;;14.79;62.12
61805;BME280;47725;47.912;7.356;2023-10-31T01:40:05;97953.33;;;14.77;62.26
61805;BME280;47725;47.912;7.356;2023-10-31T01:44:05;97956.02;;;14.74;62.17
61805;BME280;47725;47.912;7.356;2023-10-31T01:48:05;97958.81;;;14.73;62.09
61805;BME280;47725;47.912;7.356;2023-10-31T01:52:05;97962.72;;;14.71;62.03
61805;BME280;47725;47.912;7.356;2023-10-31T01:56:05;97966.06;;;14.71;61.82
61805;BME280;47725;47.912;7.356;2023-10-31T02:00:05;97969.44;;;14.70;61.47
61805;BME280;47725;47.912;7.356;2023-10-31T02:04:05;97974.00;;;14.70;61.40
61805;BME280;47725;47.912;7.356;2023-10-31T02:08:05;97978.19;;;14.70;61.19
61805;BME280;47725;47.912;7.356;2023-10-31T02:12:05;97981.19;;;14.71;61.12
61805;BME280;47725;47.912;7.356;2023-10-31T02:16:05;97984.22;;;14.73;60.45
61805;BME280;47725;47.912;7.356;2023-10-31T02:20:06;97989.87;;;14.75;60.21
61805;BME280;47725;47.912;7.356;2023-10-31T02:24:05;97995.92;;;14.76;60.14
61805;BME280;47725;47.912;7.356;2023-10-31T02:28:05;98003.03;;;14.78;60.23
61805;BME280;47725;47.912;7.356;2023-10-31T02:32:05;98007.87;;;14.80;60.16
61805;BME280;47725;47.912;7.356;2023-10-31T02:36:05;98012.20;;;14.81;59.55
61805;BME280;47725;47.912;7.356;2023-10-31T02:40:06;98017.14;;;14.80;59.57
61805;BME280;47725;47.912;7.356;2023-10-31T02:44:05;98021.98;;;14.79;60.08
61805;BME280;47725;47.912;7.356;2023-10-31T02:48:05;98024.83;;;14.77;59.89
61805;BME280;47725;47.912;7.356;2023-10-31T02:52:05;98029.03;;;14.75;60.12
61805;BME280;47725;47.912;7.356;2023-10-31T02:56:05;98034.89;;;14.72;60.12
61805;BME280;47725;47.912;7.356;2023-10-31T03:00:05;98040.20;;;14.71;59.90
61805;BME280;47725;47.912;7.356;2023-10-31T03:04:05;98044.47;;;14.68;60.16
61805;BME280;47725;47.912;7.356;2023-10-31T03:08:05;98048.55;;;14.66;60.15
61805;BME280;47725;47.912;7.356;2023-10-31T03:12:05;98054.27;;;14.66;59.92
61805;BME280;47725;47.912;7.356;2023-10-31T03:16:05;98058.94;;;14.67;60.08
61805;BME280;47725;47.912;7.356;2023-10-31T03:20:05;98061.97;;;14.67;59.97
61805;BME280;47725;47.912;7.356;2023-10-31T03:24:05;98066.04;;;14.66;60.00
61805;BME280;47725;47.912;7.356;2023-10-31T03:28:07;98070.95;;;14.66;60.13
61805;BME280;47725;47.912;7.356;2023-10-31T03:32:05;98074.47;;;14.67;59.89
61805;BME280;47725;47.912;7.356;2023-10-31T03:36:05;98078.41;;;14.65;60.21
61805;BME280;47725;47.912;7.356;2023-10-31T03:40:06;98081.89;;;14.65;60.22
61805;BME280;47725;47.912;7.356;2023-10-31T03:44:05;98084.69;;;14.62;60.71
61805;BME280;47725;47.912;7.356;2023-10-31T03:48:05;98085.72;;;14.59;60.84
61805;BME280;47725;47.912;7.356;2023-10-31T03:52:05;98086.55;;;14.57;60.96
61805;BME280;47725;47.912;7.356;2023-10-31T03:56:05;98086.69;;;14.54;61.05
61805;BME280;47725;47.912;7.356;2023-10-31T04:00:05;98085.80;;;14.53;60.95
61805;BME280;47725;47.912;7.356;2023-10-31T04:04:05;98082.84;;;14.53;60.93
61805;BME280;47725;47.912;7.356;2023-10-31T04:08:05;98081.61;;;14.53;60.74
61805;BME280;47725;47.912;7.356;2023-10-31T04:12:05;98079.75;;;14.53;60.70
61805;BME280;47725;47.912;7.356;2023-10-31T04:16:05;98079.00;;;14.54;60.40
61805;BME280;47725;47.912;7.356;2023-10-31T04:20:06;98079.72;;;14.54;60.37
61805;BME280;47725;47.912;7.356;2023-10-31T04:24:05;98083.89;;;14.53;60.65
61805;BME280;47725;47.912;7.356;2023-10-31T04:28:05;98089.08;;;14.52;60.54
61805;BME280;47725;47.912;7.356;2023-10-31T04:32:05;98093.08;;;14.51;60.63
61805;BME280;47725;47.912;7.356;2023-10-31T04:36:05;98098.28;;;14.48;60.50
61805;BME280;47725;47.912;7.356;2023-10-31T04:40:05;98100.72;;;14.45;60.65
61805;BME280;47725;47.912;7.356;2023-10-31T04:44:05;98103.19;;;14.43;60.77
61805;BME280;47725;47.912;7.356;2023-10-31T04:48:05;98106.80;;;14.40;60.66
61805;BME280;47725;47.912;7.356;2023-10-31T04:52:05;98112.22;;;14.39;60.61
61805;BME280;47725;47.912;7.356;2023-10-31T04:56:11;98115.19;;;14.38;60.51
61805;BME280;47725;47.912;7.356;2023-10-31T05:00:05;98117.46;;;14.36;60.59
61805;BME280;47725;47.912;7.356;2023-10-31T05:04:05;98122.30;;;14.35;60.75
61805;BME280;47725;47.912;7.356;2023-10-31T05:08:05;98127.83;;;14.35;60.59
61805;BME280;47725;47.912;7.356;2023-10-31T05:12:05;98133.48;;;14.34;60.60
61805;BME280;47725;47.912;7.356;2023-10-31T05:16:05;98137.95;;;14.33;60.54
61805;BME280;47725;47.912;7.356;2023-10-31T05:20:05;98141.66;;;14.32;60.51
61805;BME280;47725;47.912;7.356;2023-10-31T05:24:05;98144.67;;;14.31;60.64
61805;BME280;47725;47.912;7.356;2023-10-31T05:28:05;98149.49;;;14.29;60.50
61805;BME280;47725;47.912;7.356;2023-10-31T05:32:05;98155.17;;;14.28;60.42
61805;BME280;47725;47.912;7.356;2023-10-31T05:36:05;98159.12;;;14.27;60.49
61805;BME280;47725;47.912;7.356;2023-10-31T05:40:05;98162.62;;;14.26;60.55
61805;BME280;47725;47.912;7.356;2023-10-31T05:44:05;98165.29;;;14.25;60.35
61805;BME280;47725;47.912;7.356;2023-10-31T05:48:05;98167.19;;;14.24;60.35
61805;BME280;47725;47.912;7.356;2023-10-31T05:52:05;98172.18;;;14.23;60.50
61805;BME280;47725;47.912;7.356;2023-10-31T05:56:05;98175.48;;;14.22;60.55
61805;BME280;47725;47.912;7.356;2023-10-31T06:00:06;98178.09;;;14.20;60.65
61805;BME280;47725;47.912;7.356;2023-10-31T06:04:05;98179.80;;;14.20;60.69
61805;BME280;47725;47.912;7.356;2023-10-31T06:08:05;98179.97;;;14.20;60.64
61805;BME280;47725;47.912;7.356;2023-10-31T06:12:05;98181.13;;;14.22;60.50
61805;BME280;47725;47.912;7.356;2023-10-31T06:16:05;98180.49;;;14.24;60.47
61805;BME280;47725;47.912;7.356;2023-10-31T06:20:08;98179.92;;;14.25;60.50
61805;BME280;47725;47.912;7.356;2023-10-31T06:24:05;98178.16;;;14.28;60.51
61805;BME280;47725;47.912;7.356;2023-10-31T06:28:05;98177.06;;;14.29;60.42
61805;BME280;47725;47.912;7.356;2023-10-31T06:32:05;98177.08;;;14.30;60.47
61805;BME280;47725;47.912;7.356;2023-10-31T06:36:06;98178.80;;;14.28;60.61
61805;BME280;47725;47.912;7.356;2023-10-31T06:40:05;98182.12;;;14.26;60.69
61805;BME280;47725;47.912;7.356;2023-10-31T06:44:05;98185.97;;;14.24;60.72
61805;BME280;47725;47.912;7.356;2023-10-31T06:48:05;98189.97;;;14.21;60.91
61805;BME280;47725;47.912;7.356;2023-10-31T06:52:05;98193.77;;;14.19;60.97
61805;BME280;47725;47.912;7.356;2023-10-31T06:56:05;98198.69;;;14.17;61.01
61805;BME280;47725;47.912;7.356;2023-10-31T07:00:05;98205.78;;;14.16;61.05
61805;BME280;47725;47.912;7.356;2023-10-31T07:04:05;98211.24;;;14.14;61.35
61805;BME280;47725;47.912;7.356;2023-10-31T07:08:05;98217.52;;;14.13;61.40
61805;BME280;47725;47.912;7.356;2023-10-31T07:12:05;98222.34;;;14.12;61.52
61805;BME280;47725;47.912;7.356;2023-10-31T07:16:05;98227.57;;;14.12;61.55
61805;BME280;47725;47.912;7.356;2023-10-31T07:20:06;98231.80;;;14.11;61.73
61805;BME280;47725;47.912;7.356;2023-10-31T07:24:05;98235.43;;;14.12;61.80
61805;BME280;47725;47.912;7.356;2023-10-31T07:28:05;98239.31;;;14.12;61.98
61805;BME280;47725;47.912;7.356;2023-10-31T07:32:05;98241.47;;;14.13;61.92
61805;BME280;47725;47.912;7.356;2023-10-31T07:36:05;98243.94;;;14.15;61.94
61805;BME280;47725;47.912;7.356;2023-10-31T07:40:05;98246.70;;;14.19;61.93
61805;BME280;47725;47.912;7.356;2023-10-31T07:44:05;98251.07;;;14.22;61.97
61805;BME280;47725;47.912;7.356;2023-10-31T07:48:05;98254.85;;;14.24;62.26
61805;BME280;47725;47.912;7.356;2023-10-31T07:52:05;98259.84;;;14.27;62.19
61805;BME280;47725;47.912;7.356;2023-10-31T07:56:05;98264.17;;;14.30;62.32
61805;BME280;47725;47.912;7.356;2023-10-31T08:00:08;98270.42;;;14.32;62.27
61805;BME280;47725;47.912;7.356;2023-10-31T08:04:05;98274.81;;;14.33;62.72
61805;BME280;47725;47.912;7.356;2023-10-31T08:08:05;98278.48;;;14.34;62.66
61805;BME280;47725;47.912;7.356;2023-10-31T08:12:05;98282.30;;;14.37;62.57
61805;BME280;47725;47.912;7.356;2023-10-31T08:16:05;98285.97;;;14.40;62.60
61805;BME280;47725;47.912;7.356;2023-10-31T08:20:05;98289.31;;;14.43;62.49
61805;BME280;47725;47.912;7.356;2023-10-31T08:24:05;98292.19;;;14.48;62.28
61805;BME280;47725;47.912;7.356;2023-10-31T08:28:05;98293.79;;;14.53;62.22
61805;BME280;47725;47.912;7.356;2023-10-31T08:32:05;98296.34;;;14.58;62.25
61805;BME280;47725;47.912;7.356;2023-10-31T08:36:05;98298.46;;;14.63;62.13
61805;BME280;47725;47.912;7.356;2023-10-31T08:40:05;98298.94;;;14.69;61.71
61805;BME280;47725;47.912;7.356;2023-10-31T08:44:05;98298.19;;;14.77;61.50
61805;BME280;47725;47.912;7.356;2023-10-31T08:48:05;98297.96;;;14.84;61.47
61805;BME280;47725;47.912;7.356;2023-10-31T08:52:05;98299.77;;;14.92;60.83
61805;BME280;47725;47.912;7.356;2023-10-31T08:56:05;98301.06;;;15.00;60.76
61805;BME280;47725;47.912;7.356;2023-10-31T09:00:05;98302.20;;;15.06;60.62
61805;BME280;47725;47.912;7.356;2023-10-31T09:04:05;98301.54;;;15.11;60.41
61805;BME280;47725;47.912;7.356;2023-10-31T09:08:05;98300.03;;;15.17;60.63
61805;BME280;47725;47.912;7.356;2023-10-31T09:12:05;98299.39;;;15.24;60.47
61805;BME280;47725;47.912;7.356;2023-10-31T09:16:05;98299.31;;;15.33;60.08
61805;BME280;47725;47.912;7.356;2023-10-31T09:20:05;98298.99;;;15.45;59.23
61805;BME280;47725;47.912;7.356;2023-10-31T09:24:05;98300.33;;;15.58;58.64
61805;BME280;47725;47.912;7.356;2023-10-31T09:28:04;98301.97;;;15.72;59.09
61805;BME280;47725;47.912;7.356;2023-10-31T09:32:05;98303.94;;;15.88;58.40
61805;BME280;47725;47.912;7.356;2023-10-31T09:36:05;98304.52;;;16.05;58.16
61805;BME280;47725;47.912;7.356;2023-10-31T09:40:05;98303.69;;;16.23;57.70
61805;BME280;47725;47.912;7.356;2023-10-31T09:44:05;98303.39;;;16.43;56.35
61805;BME280;47725;47.912;7.356;2023-10-31T09:48:05;98302.80;;;16.65;55.83
61805;BME280;47725;47.912;7.356;2023-10-31T09:52:05;98302.70;;;16.86;54.66
61805;BME280;47725;47.912;7.356;2023-10-31T09:56:05;98302.48;;;17.08;54.30
61805;BME280;47725;47.912;7.356;2023-10-31T10:00:05;98302.55;;;17.38;53.40
61805;BME280;47725;47.912;7.356;2023-10-31T10:04:05;98302.69;;;17.64;52.75
61805;BME280;47725;47.912;7.356;2023-10-31T10:08:04;98303.05;;;17.84;52.44
61805;BME280;47725;47.912;7.356;2023-10-31T10:12:05;98303.66;;;17.99;50.70
61805;BME280;47725;47.912;7.356;2023-10-31T10:16:05;98304.94;;;18.13;49.96
61805;BME280;47725;47.912;7.356;2023-10-31T10:24:05;98309.33;;;18.45;50.42
61805;BME280;47725;47.912;7.356;2023-10-31T10:28:04;98310.97;;;18.60;49.35
61805;BME280;47725;47.912;7.356;2023-10-31T10:32:05;98312.59;;;18.75;48.83
61805;BME280;47725;47.912;7.356;2023-10-31T10:36:05;98313.43;;;18.91;48.76
61805;BME280;47725;47.912;7.356;2023-10-31T10:40:08;98314.84;;;19.03;48.76
61805;BME280;47725;47.912;7.356;2023-10-31T10:44:05;98317.22;;;19.03;48.56
61805;BME280;47725;47.912;7.356;2023-10-31T10:48:05;98319.08;;;18.98;48.96
61805;BME280;47725;47.912;7.356;2023-10-31T10:52:09;98321.22;;;18.94;49.71
61805;BME280;47725;47.912;7.356;2023-10-31T10:56:07;98320.86;;;18.87;50.01
61805;BME280;47725;47.912;7.356;2023-10-31T11:00:05;98321.06;;;18.75;50.13
61805;BME280;47725;47.912;7.356;2023-10-31T11:04:05;98321.87;;;18.61;51.20
61805;BME280;47725;47.912;7.356;2023-10-31T11:08:05;98321.14;;;18.45;51.58
61805;BME280;47725;47.912;7.356;2023-10-31T11:12:05;98321.70;;;18.34;51.37
61805;BME280;47725;47.912;7.356;2023-10-31T11:16:09;98322.80;;;18.31;52.09
61805;BME280;47725;47.912;7.356;2023-10-31T11:20:05;98323.69;;;18.32;50.54
61805;BME280;47725;47.912;7.356;2023-10-31T11:24:05;98325.32;;;18.34;51.22
61805;BME280;47725;47.912;7.356;2023-10-31T11:28:17;98325.81;;;18.32;51.26
61805;BME280;47725;47.912;7.356;2023-10-31T11:32:08;98326.35;;;18.25;51.71
61805;BME280;47725;47.912;7.356;2023-10-31T11:36:05;98326.26;;;18.18;52.04
61805;BME280;47725;47.912;7.356;2023-10-31T11:40:17;98325.53;;;18.11;52.04
61805;BME280;47725;47.912;7.356;2023-10-31T11:44:05;98326.31;;;18.06;51.95
61805;BME280;47725;47.912;7.356;2023-10-31T11:48:04;98328.72;;;18.01;51.80
61805;BME280;47725;47.912;7.356;2023-10-31T11:52:17;98330.99;;;17.95;51.94
61805;BME280;47725;47.912;7.356;2023-10-31T11:56:05;98334.03;;;17.90;51.67
61805;BME280;47725;47.912;7.356;2023-10-31T12:00:05;98337.66;;;17.83;51.73
61805;BME280;47725;47.912;7.356;2023-10-31T12:04:04;98342.10;;;17.79;51.89
61805;BME280;47725;47.912;7.356;2023-10-31T12:08:05;98346.25;;;17.75;51.64
61805;BME280;47725;47.912;7.356;2023-10-31T12:12:05;98350.45;;;17.70;51.74
61805;BME280;47725;47.912;7.356;2023-10-31T12:16:05;98354.21;;;17.63;51.44
61805;BME280;47725;47.912;7.356;2023-10-31T12:20:05;98359.36;;;17.53;51.93
61805;BME280;47725;47.912;7.356;2023-10-31T12:24:05;98363.79;;;17.45;52.07
61805;BME280;47725;47.912;7.356;2023-10-31T12:28:04;98368.35;;;17.37;52.61
61805;BME280;47725;47.912;7.356;2023-10-31T12:32:05;98373.30;;;17.30;53.06
61805;BME280;47725;47.912;7.356;2023-10-31T12:36:05;98377.23;;;17.25;53.29
61805;BME280;47725;47.912;7.356;2023-10-31T12:40:05;98379.83;;;17.21;53.25
61805;BME280;47725;47.912;7.356;2023-10-31T12:44:05;98382.86;;;17.18;53.65
61805;BME280;47725;47.912;7.356;2023-10-31T12:48:06;98383.91;;;17.12;53.89
61805;BME280;47725;47.912;7.356;2023-10-31T12:52:04;98385.29;;;17.09;54.05
61805;BME280;47725;47.912;7.356;2023-10-31T12:56:05;98386.63;;;17.06;54.08
61805;BME280;47725;47.912;7.356;2023-10-31T13:00:05;98388.37;;;17.03;54.22
61805;BME280;47725;47.912;7.356;2023-10-31T13:04:05;98388.68;;;17.01;54.56
61805;BME280;47725;47.912;7.356;2023-10-31T13:08:04;98388.35;;;16.99;54.74
61805;BME280;47725;47.912;7.356;2023-10-31T13:12:05;98389.67;;;16.98;54.38
61805;BME280;47725;47.912;7.356;2023-10-31T13:16:05;98389.37;;;16.97;54.71
61805;BME280;47725;47.912;7.356;2023-10-31T13:20:05;98390.60;;;16.98;54.15
61805;BME280;47725;47.912;7.356;2023-10-31T13:24:05;98391.55;;;16.99;54.04
61805;BME280;47725;47.912;7.356;2023-10-31T13:28:04;98392.86;;;17.01;54.27
61805;BME280;47725;47.912;7.356;2023-10-31T13:32:05;98394.83;;;17.04;53.80
61805;BME280;47725;47.912;7.356;2023-10-31T13:36:05;98396.97;;;17.06;53.72
61805;BME280;47725;47.912;7.356;2023-10-31T13:40:05;98401.00;;;17.08;53.94
61805;BME280;47725;47.912;7.356;2023-10-31T13:44:05;98405.05;;;17.15;53.59
61805;BME280;47725;47.912;7.356;2023-10-31T13:48:05;98408.26;;;17.29;52.50
61805;BME280;47725;47.912;7.356;2023-10-31T13:52:05;98412.06;;;17.44;52.24
61805;BME280;47725;47.912;7.356;2023-10-31T13:56:05;98417.21;;;17.62;51.74
61805;BME280;47725;47.912;7.356;2023-10-31T14:00:05;98423.46;;;17.80;51.40
61805;BME280;47725;47.912;7.356;2023-10-31T14:04:06;98431.72;;;17.96;51.41
61805;BME280;47725;47.912;7.356;2023-10-31T14:08:04;98440.91;;;18.10;51.41
61805;BME280;47725;47.912;7.356;2023-10-31T14:12:05;98449.94;;;18.19;51.42
61805;BME280;47725;47.912;7.356;2023-10-31T14:16:05;98457.36;;;18.25;51.40
61805;BME280;47725;47.912;7.356;2023-10-31T14:20:05;98462.36;;;18.26;51.94
61805;BME280;47725;47.912;7.356;2023-10-31T14:24:05;98469.11;;;18.22;52.12
61805;BME280;47725;47.912;7.356;2023-10-31T14:28:04;98474.61;;;18.13;52.92
61805;BME280;47725;47.912;7.356;2023-10-31T14:32:05;98480.02;;;18.06;52.84
61805;BME280;47725;47.912;7.356;2023-10-31T14:36:05;98484.89;;;18.02;52.69
61805;BME280;47725;47.912;7.356;2023-10-31T14:40:05;98489.22;;;18.02;52.24
61805;BME280;47725;47.912;7.356;2023-10-31T14:44:05;98493.84;;;18.03;52.19
61805;BME280;47725;47.912;7.356;2023-10-31T14:48:05;98499.67;;;18.03;52.19
61805;BME280;47725;47.912;7.356;2023-10-31T14:52:05;98506.23;;;18.01;52.58
61805;BME280;47725;47.912;7.356;2023-10-31T14:56:05;98513.84;;;17.97;53.03
61805;BME280;47725;47.912;7.356;2023-10-31T15:00:05;98519.81;;;17.91;53.34
61805;BME280;47725;47.912;7.356;2023-10-31T15:04:05;98525.39;;;17.85;53.61
61805;BME280;47725;47.912;7.356;2023-10-31T15:08:04;98529.43;;;17.78;53.74
61805;BME280;47725;47.912;7.356;2023-10-31T15:12:05;98533.26;;;17.71;53.85
61805;BME280;47725;47.912;7.356;2023-10-31T15:16:05;98537.06;;;17.65;53.81
61805;BME280;47725;47.912;7.356;2023-10-31T15:20:05;98541.08;;;17.59;53.91
61805;BME280;47725;47.912;7.356;2023-10-31T15:24:05;98544.73;;;17.52;54.08
61805;BME280;47725;47.912;7.356;2023-10-31T15:28:04;98549.03;;;17.44;54.29
61805;BME280;47725;47.912;7.356;2023-10-31T15:32:05;98554.29;;;17.34;54.62
61805;BME280;47725;47.912;7.356;2023-10-31T15:36:05;98557.68;;;17.24;54.85
61805;BME280;47725;47.912;7.356;2023-10-31T15:40:06;98563.48;;;17.12;55.23
61805;BME280;47725;47.912;7.356;2023-10-31T15:44:05;98571.04;;;17.02;55.39
61805;BME280;47725;47.912;7.356;2023-10-31T15:48:05;98575.80;;;16.91;55.53
61805;BME280;47725;47.912;7.356;2023-10-31T15:52:05;98581.59;;;16.81;55.70
61805;BME280;47725;47.912;7.356;2023-10-31T15:56:05;98587.09;;;16.74;55.82
61805;BME280;47725;47.912;7.356;2023-10-31T16:00:05;98593.32;;;16.68;55.93
61805;BME280;47725;47.912;7.356;2023-10-31T16:04:04;98600.44;;;16.63;56.07
61805;BME280;47725;47.912;7.356;2023-10-31T16:08:04;98607.58;;;16.60;55.86
61805;BME280;47725;47.912;7.356;2023-10-31T16:12:05;98614.92;;;16.56;56.25
61805;BME280;47725;47.912;7.356;2023-10-31T16:16:05;98621.72;;;16.50;56.75
61805;BME280;47725;47.912;7.356;2023-10-31T16:20:05;98628.86;;;16.46;56.51
61805;BME280;47725;47.912;7.356;2023-10-31T16:24:05;98637.84;;;16.43;56.43
61805;BME280;47725;47.912;7.356;2023-10-31T16:28:04;98646.40;;;16.41;56.44
61805;BME280;47725;47.912;7.356;2023-10-31T16:32:04;98654.44;;;16.40;56.42
61805;BME280;47725;47.912;7.356;2023-10-31T16:36:05;98662.55;;;16.39;56.49
61805;BME280;47725;47.912;7.356;2023-10-31T16:40:05;98669.02;;;16.37;56.51
61805;BME280;47725;47.912;7.356;2023-10-31T16:44:04;98674.56;;;16.36;56.39
61805;BME280;47725;47.912;7.356;2023-10-31T16:48:04;98680.32;;;16.34;56.57
61805;BME280;47725;47.912;7.356;2023-10-31T16:52:04;98684.90;;;16.31;56.71
61805;BME280;47725;47.912;7.356;2023-10-31T16:56:05;98690.67;;;16.28;56.54
61805;BME280;47725;47.912;7.356;2023-10-31T17:00:05;98696.49;;;16.25;56.68
61805;BME280;47725;47.912;7.356;2023-10-31T17:04:05;98702.28;;;16.23;56.80
61805;BME280;47725;47.912;7.356;2023-10-31T17:08:04;98706.79;;;16.22;56.65
61805;BME280;47725;47.912;7.356;2023-10-31T17:12:05;98711.47;;;16.22;56.40
61805;BME280;47725;47.912;7.356;2023-10-31T17:16:05;98716.75;;;16.24;56.20
61805;BME280;47725;47.912;7.356;2023-10-31T17:20:05;98725.45;;;16.26;56.09
61805;BME280;47725;47.912;7.356;2023-10-31T17:24:06;98731.48;;;16.26;56.47
61805;BME280;47725;47.912;7.356;2023-10-31T17:28:04;98737.41;;;16.26;56.60
61805;BME280;47725;47.912;7.356;2023-10-31T17:32:05;98742.72;;;16.24;56.70
61805;BME280;47725;47.912;7.356;2023-10-31T17:36:04;98748.77;;;16.24;56.84
61805;BME280;47725;47.912;7.356;2023-10-31T17:40:05;98753.49;;;16.19;57.79
61805;BME280;47725;47.912;7.356;2023-10-31T17:44:04;98757.87;;;16.13;57.97
61805;BME280;47725;47.912;7.356;2023-10-31T17:48:04;98763.43;;;16.08;58.03
61805;BME280;47725;47.912;7.356;2023-10-31T17:52:04;98767.18;;;16.04;58.19
61805;BME280;47725;47.912;7.356;2023-10-31T17:56:05;98769.12;;;15.99;58.61
61805;BME280;47725;47.912;7.356;2023-10-31T18:00:05;98771.62;;;15.96;58.64
61805;BME280;47725;47.912;7.356;2023-10-31T18:04:05;98775.64;;;15.95;58.18
61805;BME280;47725;47.912;7.356;2023-10-31T18:08:04;98781.36;;;15.91;58.51
61805;BME280;47725;47.912;7.356;2023-10-31T18:12:04;98787.89;;;15.91;57.97
61805;BME280;47725;47.912;7.356;2023-10-31T18:16:05;98792.97;;;15.90;58.35
61805;BME280;47725;47.912;7.356;2023-10-31T18:20:05;98799.21;;;15.88;58.55
61805;BME280;47725;47.912;7.356;2023-10-31T18:24:05;98805.79;;;15.84;58.78
61805;BME280;47725;47.912;7.356;2023-10-31T18:28:04;98812.55;;;15.80;59.07
61805;BME280;47725;47.912;7.356;2023-10-31T18:32:05;98817.60;;;15.77;59.34
61805;BME280;47725;47.912;7.356;2023-10-31T18:36:04;98819.43;;;15.78;58.46
61805;BME280;47725;47.912;7.356;2023-10-31T18:40:05;98822.40;;;15.77;58.81
61805;BME280;47725;47.912;7.356;2023-10-31T18:44:05;98826.58;;;15.75;59.14
61805;BME280;47725;47.912;7.356;2023-10-31T18:48:04;98831.05;;;15.73;59.07
61805;BME280;47725;47.912;7.356;2023-10-31T18:52:04;98835.08;;;15.74;58.64
61805;BME280;47725;47.912;7.356;2023-10-31T18:56:04;98839.59;;;15.76;58.55
61805;BME280;47725;47.912;7.356;2023-10-31T19:00:05;98844.07;;;15.78;58.33
61805;BME280;47725;47.912;7.356;2023-10-31T19:04:04;98846.64;;;15.78;58.46
61805;BME280;47725;47.912;7.356;2023-10-31T19:08:04;98849.73;;;15.79;58.30
61805;BME280;47725;47.912;7.356;2023-10-31T19:12:04;98851.05;;;15.78;58.34
61805;BME280;47725;47.912;7.356;2023-10-31T19:16:05;98852.97;;;15.75;58.64
61805;BME280;47725;47.912;7.356;2023-10-31T19:20:04;98854.33;;;15.73;58.75
61805;BME280;47725;47.912;7.356;2023-10-31T19:24:05;98854.94;;;15.77;58.00
61805;BME280;47725;47.912;7.356;2023-10-31T19:28:04;98853.94;;;15.80;58.00
61805;BME280;47725;47.912;7.356;2023-10-31T19:32:05;98852.62;;;15.83;57.90
61805;BME280;47725;47.912;7.356;2023-10-31T19:36:05;98851.87;;;15.86;57.84
61805;BME280;47725;47.912;7.356;2023-10-31T19:40:04;98853.75;;;15.90;57.67
61805;BME280;47725;47.912;7.356;2023-10-31T19:44:04;98855.06;;;15.91;57.84
61805;BME280;47725;47.912;7.356;2023-10-31T19:48:04;98857.22;;;15.91;57.93
61805;BME280;47725;47.912;7.356;2023-10-31T19:52:04;98859.58;;;15.90;58.29
61805;BME280;47725;47.912;7.356;2023-10-31T19:56:04;98861.72;;;15.90;57.79
61805;BME280;47725;47.912;7.356;2023-10-31T20:00:05;98863.06;;;15.92;57.67
61805;BME280;47725;47.912;7.356;2023-10-31T20:04:04;98863.81;;;15.94;57.80
61805;BME280;47725;47.912;7.356;2023-10-31T20:08:04;98862.70;;;15.93;58.00
61805;BME280;47725;47.912;7.356;2023-10-31T20:12:04;98861.78;;;15.91;58.11
61805;BME280;47725;47.912;7.356;2023-10-31T20:16:05;98862.95;;;15.93;57.59
61805;BME280;47725;47.912;7.356;2023-10-31T20:20:05;98864.61;;;15.91;58.10
61805;BME280;47725;47.912;7.356;2023-10-31T20:24:04;98866.78;;;15.87;58.30
61805;BME280;47725;47.912;7.356;2023-10-31T20:28:04;98866.69;;;15.86;58.02
61805;BME280;47725;47.912;7.356;2023-10-31T20:32:05;98864.25;;;15.83;58.19
61805;BME280;47725;47.912;7.356;2023-10-31T20:36:04;98862.45;;;15.81;58.15
61805;BME280;47725;47.912;7.356;2023-10-31T20:40:04;98862.70;;;15.78;58.22
61805;BME280;47725;47.912;7.356;2023-10-31T20:44:04;98861.75;;;15.76;58.33
61805;BME280;47725;47.912;7.356;2023-10-31T20:48:04;98859.72;;;15.73;58.46
61805;BME280;47725;47.912;7.356;2023-10-31T20:52:04;98858.14;;;15.70;58.57
61805;BME280;47725;47.912;7.356;2023-10-31T20:56:05;98856.31;;;15.67;58.67
61805;BME280;47725;47.912;7.356;2023-10-31T21:00:04;98852.95;;;15.64;58.57
61805;BME280;47725;47.912;7.356;2023-10-31T21:04:04;98849.22;;;15.62;58.59
61805;BME280;47725;47.912;7.356;2023-10-31T21:08:04;98846.70;;;15.60;58.57
61805;BME280;47725;47.912;7.356;2023-10-31T21:12:04;98846.33;;;15.59;58.51